Data for 01/22/2008

Time Sea-Level Adjusted Pressure Absolute Pressure Temperature Relative Humidity Dew Point   
(mb) (inHg) (mb) (inHg) (C) (F) (%) (C) (F)
00:05 1024 30.24 853 25.19 -25.7 -14.3 78 -28.4 -19.2
00:10 1024 30.24 853 25.19 -25.3 -13.6 77 -28.3 -18.9
00:15 1024 30.24 853 25.19 -25.1 -13.2 75 -28.3 -19
00:20 1024 30.24 853 25.19 -25.2 -13.4 75 -28.4 -19.1
00:25 1024 30.24 853 25.19 -25.3 -13.5 76 -28.3 -19
00:30 1024 30.24 853 25.19 -25.3 -13.5 77 -28.2 -18.8
00:35 1024 30.24 853 25.19 -25.3 -13.5 76 -28.3 -18.9
00:40 1024 30.24 853 25.19 -25.2 -13.3 77 -28.2 -18.7
00:45 1024 30.24 853 25.19 -25 -13.1 75 -28.3 -18.9
00:50 1024 30.24 853 25.19 -25.3 -13.6 77 -28.3 -19
00:55 1024 30.24 853 25.19 -25.3 -13.5 76 -28.4 -19
01:00 1024 30.24 853 25.19 -25.4 -13.6 76 -28.4 -19.2
01:05 1024 30.24 853 25.19 -25.4 -13.6 76 -28.4 -19.1
01:10 1024 30.24 853 25.19 -25.4 -13.7 77 -28.4 -19.1
01:15 1024 30.24 853 25.19 -25.2 -13.4 78 -28 -18.4
01:20 1024 30.24 853 25.19 -24.7 -12.4 76 -27.8 -18
01:25 1024 30.24 853 25.19 -24.4 -11.9 75 -27.6 -17.8
01:30 1024 30.24 853 25.19 -24.5 -12.2 75 -27.8 -18.1
01:35 1024 30.24 853 25.19 -24.7 -12.5 76 -27.8 -18.1
01:40 1024 30.24 853 25.19 -24.7 -12.4 76 -27.8 -18
01:45 1024 30.24 853 25.19 -24.6 -12.3 74 -27.9 -18.3
01:50 1024 30.24 853 25.19 -24.7 -12.5 75 -27.9 -18.2
01:55 1024 30.24 853 25.19 -24.7 -12.4 76 -27.8 -18.1
02:00 1024 30.24 853 25.19 -24.7 -12.5 77 -27.7 -17.8
02:05 1024 30.24 853 25.19 -24.6 -12.3 77 -27.6 -17.7
02:10 1024 30.24 853 25.19 -24.4 -11.9 76 -27.5 -17.6
02:15 1024 30.24 853 25.19 -24.1 -11.3 75 -27.3 -17.1
02:20 1024 30.24 853 25.19 -23.7 -10.6 75 -26.9 -16.4
02:25 1024 30.24 853 25.19 -23.5 -10.3 75 -26.7 -16.1
02:30 1024 30.24 853 25.19 -23.3 -10 75 -26.7 -16
02:35 1024 30.24 853 25.19 -23.2 -9.7 75 -26.5 -15.7
02:40 1024 30.24 854 25.22 -22.9 -9.3 76 -26 -14.9
02:45 1024 30.24 854 25.22 -22.9 -9.1 77 -25.9 -14.6
02:50 1024 30.24 854 25.22 -22.9 -9.1 76 -25.9 -14.7
02:55 1024 30.24 854 25.22 -22.8 -9.1 77 -25.9 -14.6
03:00 1024 30.24 854 25.22 -22.8 -9 76 -25.9 -14.6
03:05 1025 30.27 854 25.22 -22.7 -8.9 78 -25.6 -14
03:10 1025 30.27 854 25.22 -22.8 -9 78 -25.7 -14.3
03:15 1025 30.27 854 25.22 -22.8 -9.1 77 -25.8 -14.5
03:20 1024 30.24 854 25.22 -22.8 -9.1 78 -25.7 -14.3
03:25 1024 30.24 854 25.22 -22.6 -8.7 75 -25.9 -14.6
03:30 1024 30.24 854 25.22 -22.6 -8.8 77 -25.7 -14.2
03:35 1024 30.24 854 25.22 -22.7 -8.8 76 -25.8 -14.4
03:40 1024 30.24 854 25.22 -22.5 -8.6 78 -25.3 -13.6
03:45 1024 30.24 854 25.22 -22.4 -8.3 78 -25.3 -13.5
03:50 1024 30.24 854 25.22 -22.3 -8.1 78 -25.1 -13.3
03:55 1024 30.24 854 25.22 -22.1 -7.8 78 -25 -13
04:00 1024 30.24 853 25.19 -22 -7.5 78 -24.9 -12.8
04:05 1024 30.24 853 25.19 -22 -7.5 76 -25.1 -13.2
04:10 1024 30.24 853 25.19 -22.3 -8.1 77 -25.3 -13.6
04:15 1024 30.24 853 25.19 -22.3 -8.1 78 -25.1 -13.1
04:20 1024 30.24 853 25.19 -22.1 -7.8 78 -25 -13.1
04:25 1024 30.24 854 25.22 -21.9 -7.5 77 -25 -12.9
04:30 1024 30.24 854 25.22 -21.9 -7.3 76 -25 -12.9
04:35 1024 30.24 853 25.19 -21.8 -7.2 76 -25 -13
04:40 1024 30.24 853 25.19 -21.8 -7.2 76 -25 -13
04:45 1024 30.24 853 25.19 -21.7 -7.1 77 -24.8 -12.7
04:50 1024 30.24 853 25.19 -21.7 -7 75 -24.9 -12.9
04:55 1024 30.24 853 25.19 -21.6 -6.9 75 -25 -13
05:00 1024 30.24 853 25.19 -21.6 -6.9 77 -24.6 -12.3
05:05 1024 30.24 853 25.19 -21.5 -6.6 73 -25.1 -13.1
05:10 1024 30.24 853 25.19 -21.4 -6.6 73 -25.1 -13.1
05:15 1024 30.24 853 25.19 -21.3 -6.4 75 -24.7 -12.5
05:20 1024 30.24 853 25.19 -21.3 -6.3 74 -24.8 -12.6
05:25 1024 30.24 853 25.19 -21.2 -6.1 74 -24.6 -12.3
05:30 1024 30.24 853 25.19 -21 -5.8 74 -24.6 -12.2
05:35 1024 30.24 853 25.19 -20.9 -5.5 73 -24.6 -12.2
05:40 1024 30.24 854 25.22 -20.8 -5.4 74 -24.3 -11.8
05:45 1024 30.24 853 25.19 -20.8 -5.4 73 -24.5 -12
05:50 1024 30.24 853 25.19 -20.7 -5.3 71 -24.7 -12.5
05:55 1024 30.24 853 25.19 -20.7 -5.2 71 -24.7 -12.5
06:00 1024 30.24 853 25.19 -20.6 -5.1 73 -24.2 -11.6
06:05 1024 30.24 853 25.19 -20.5 -4.9 69 -24.9 -12.7
06:10 1024 30.24 853 25.19 -20.6 -5.1 70 -24.7 -12.4
06:15 1024 30.24 853 25.19 -20.6 -5 71 -24.5 -12.1
06:20 1024 30.24 853 25.19 -20.6 -5.1 71 -24.5 -12.1
06:25 1024 30.24 853 25.19 -20.7 -5.2 72 -24.5 -12
06:30 1024 30.24 853 25.19 -20.6 -5.1 73 -24.3 -11.8
06:35 1024 30.24 853 25.19 -20.5 -4.9 72 -24.3 -11.7
06:40 1024 30.24 853 25.19 -20.4 -4.8 71 -24.3 -11.8
06:45 1024 30.24 853 25.19 -20.5 -4.9 75 -23.8 -10.9
06:50 1024 30.24 853 25.19 -20.3 -4.6 74 -23.9 -11
06:55 1024 30.24 853 25.19 -20.3 -4.5 75 -23.7 -10.6
07:00 1024 30.24 853 25.19 -20.1 -4.2 75 -23.4 -10.2
07:05 1024 30.24 853 25.19 -20 -4 76 -23.3 -9.9
07:10 1024 30.24 853 25.19 -20 -4 74 -23.5 -10.3
07:15 1024 30.24 853 25.19 -20.1 -4.2 72 -23.9 -10.9
07:20 1023 30.21 853 25.19 -20.1 -4.2 73 -23.7 -10.7
07:25 1023 30.21 853 25.19 -20 -3.9 72 -23.8 -10.8
07:30 1023 30.21 853 25.19 -19.9 -3.8 73 -23.6 -10.5
07:35 1023 30.21 853 25.19 -19.7 -3.5 73 -23.5 -10.2
07:40 1023 30.21 853 25.19 -19.4 -3 72 -23.2 -9.8
07:45 1023 30.21 853 25.19 -19.2 -2.5 74 -22.7 -8.9
07:50 1023 30.21 853 25.19 -18.8 -1.8 71 -22.8 -9
07:55 1024 30.24 853 25.19 -18.6 -1.4 71 -22.5 -8.6
08:00 1024 30.24 853 25.19 -18.4 -1.1 71 -22.4 -8.3
08:05 1024 30.24 853 25.19 -18.3 -1 72 -22.2 -8
08:10 1024 30.24 853 25.19 -18.2 -0.7 70 -22.4 -8.2
08:15 1024 30.24 853 25.19 -18.3 -1 72 -22.3 -8.1
08:20 1024 30.24 853 25.19 -18.3 -0.9 71 -22.4 -8.3
08:25 1024 30.24 853 25.19 -18.2 -0.7 72 -22 -7.6
08:30 1024 30.24 853 25.19 -18.4 -1.1 74 -21.9 -7.4
08:35 1024 30.24 853 25.19 -18.8 -1.9 76 -22.1 -7.7
08:40 1024 30.24 853 25.19 -19 -2.1 72 -22.8 -9
08:45 1024 30.24 853 25.19 -19.6 -3.2 75 -23 -9.3
08:50 1024 30.24 853 25.19 -19.9 -3.8 77 -23 -9.4
08:55 1024 30.24 853 25.19 -19.6 -3.2 75 -22.9 -9.2
09:00 1024 30.24 853 25.19 -19.3 -2.7 77 -22.4 -8.4
09:05 1024 30.24 853 25.19 -19 -2.2 75 -22.4 -8.3
09:10 1024 30.24 853 25.19 -19 -2.2 74 -22.6 -8.7
09:15 1024 30.24 853 25.19 -19.2 -2.6 74 -22.8 -9
09:20 1024 30.24 853 25.19 -19.2 -2.6 76 -22.5 -8.5
09:25 1024 30.24 853 25.19 -18.9 -1.9 75 -22.3 -8.1
09:30 1024 30.24 853 25.19 -18.4 -1.2 72 -22.3 -8.2
09:35 1024 30.24 853 25.19 -18.1 -0.7 72 -22 -7.7
09:40 1024 30.24 853 25.19 -17.8 -0 69 -22.2 -8
09:45 1024 30.24 853 25.19 -17.5 0.6 66 -22.4 -8.3
09:50 1024 30.24 853 25.19 -17.4 0.7 67 -22.2 -8
09:55 1024 30.24 853 25.19 -17.3 0.9 66 -22.3 -8.1
10:00 1024 30.24 853 25.19 -17.1 1.2 65 -22.2 -8
10:05 1024 30.24 853 25.19 -16.8 1.7 64 -22.2 -7.9
10:10 1024 30.24 853 25.19 -17.3 0.8 65 -22.4 -8.3
10:15 1024 30.24 853 25.19 -17.7 0.2 67 -22.4 -8.3
10:20 1024 30.24 853 25.19 -16.9 1.6 65 -22 -7.6
10:25 1024 30.24 853 25.19 -16.3 2.6 64 -21.6 -6.9
10:30 1024 30.24 853 25.19 -15.9 3.4 63 -21.5 -6.7
10:35 1024 30.24 853 25.19 -15.8 3.5 64 -21.1 -6
10:40 1024 30.24 853 25.19 -15.7 3.7 61 -21.6 -7
10:45 1024 30.24 853 25.19 -15.8 3.6 62 -21.5 -6.7
10:50 1024 30.24 853 25.19 -15.7 3.7 65 -21 -5.7
10:55 1024 30.24 853 25.19 -16.1 3.1 62 -21.7 -7.1
11:00 1024 30.24 853 25.19 -16.8 1.7 64 -22.1 -7.8
11:05 1024 30.24 853 25.19 -16.7 2 63 -22.1 -7.8
11:10 1023 30.21 853 25.19 -16.3 2.8 62 -21.9 -7.3
11:15 1023 30.21 853 25.19 -15.8 3.5 61 -21.7 -7.1
11:20 1023 30.21 853 25.19 -15.4 4.3 59 -21.7 -7.1
11:25 1023 30.21 853 25.19 -15.3 4.4 61 -21.3 -6.3
11:30 1023 30.21 853 25.19 -15.3 4.4 59 -21.6 -6.9
11:35 1023 30.21 853 25.19 -15.1 4.9 58 -21.6 -6.8
11:40 1023 30.21 853 25.19 -14.5 5.8 55 -21.7 -7.1
11:45 1023 30.21 853 25.19 -14.6 5.6 56 -21.5 -6.8
11:50 1023 30.21 852 25.16 -15 5 56 -22 -7.7
11:55 1023 30.21 852 25.16 -16 3.1 60 -22.1 -7.8
12:00 1023 30.21 852 25.16 -15.3 4.4 58 -21.9 -7.3
12:05 1023 30.21 852 25.16 -14.6 5.7 57 -21.3 -6.4
12:10 1023 30.21 852 25.16 -14.2 6.4 55 -21.3 -6.3
12:15 1023 30.21 852 25.16 -14.3 6.3 57 -21 -5.9
12:20 1023 30.21 852 25.16 -14.7 5.6 56 -21.7 -7.1
12:25 1023 30.21 852 25.16 -14.9 5.2 57 -21.6 -6.9
12:30 1023 30.21 852 25.16 -14.6 5.8 56 -21.6 -7
12:35 1023 30.21 852 25.16 -14 6.9 58 -20.5 -4.9
12:40 1023 30.21 852 25.16 -13.3 8.1 55 -20.5 -4.9
12:45 1023 30.21 852 25.16 -13 8.5 53 -20.6 -5.2
12:50 1023 30.21 852 25.16 -14.1 6.7 57 -20.8 -5.4
12:55 1022 30.18 852 25.16 -13.8 7.1 56 -20.8 -5.4
13:00 1022 30.18 852 25.16 -13.7 7.4 55 -20.9 -5.6
13:05 1022 30.18 852 25.16 -13.8 7.2 59 -20.2 -4.4
13:10 1022 30.18 851 25.13 -13.1 8.4 55 -20.3 -4.6
13:15 1022 30.18 851 25.13 -13.1 8.4 55 -20.4 -4.8
13:20 1022 30.18 851 25.13 -13.2 8.3 57 -20 -4.1
13:25 1022 30.18 851 25.13 -13.1 8.5 56 -20.2 -4.3
13:30 1022 30.18 851 25.13 -12.7 9.2 54 -20.1 -4.2
13:35 1022 30.18 851 25.13 -12.4 9.8 54 -19.8 -3.7
13:40 1022 30.18 851 25.13 -13 8.6 55 -20.3 -4.5
13:45 1022 30.18 851 25.13 -13.6 7.5 57 -20.3 -4.6
13:50 1022 30.18 851 25.13 -13.2 8.3 58 -19.8 -3.6
13:55 1022 30.18 851 25.13 -12.8 9 56 -19.9 -3.8
14:00 1022 30.18 851 25.13 -12.6 9.3 57 -19.6 -3.2
14:05 1022 30.18 851 25.13 -12.9 8.8 57 -19.8 -3.6
14:10 1022 30.18 851 25.13 -12.3 9.8 54 -19.8 -3.6
14:15 1022 30.18 851 25.13 -12.2 10.1 57 -19.1 -2.4
14:20 1022 30.18 851 25.13 -12.4 9.7 55 -19.7 -3.5
14:25 1022 30.18 851 25.13 -12.9 8.8 60 -19.1 -2.3
14:30 1022 30.18 851 25.13 -12.9 8.8 63 -18.6 -1.4
14:35 1022 30.18 851 25.13 -12.6 9.3 60 -18.9 -2.1
14:40 1022 30.18 851 25.13 -12.4 9.7 60 -18.6 -1.4
14:45 1022 30.18 851 25.13 -12.2 10 60 -18.4 -1.2
14:50 1022 30.18 851 25.13 -12.8 8.9 65 -18.2 -0.7
14:55 1022 30.18 851 25.13 -12.8 9 65 -18 -0.4
15:00 1022 30.18 851 25.13 -13.2 8.3 66 -18.3 -0.9
15:05 1022 30.18 851 25.13 -13.2 8.2 65 -18.5 -1.2
15:10 1022 30.18 851 25.13 -14 6.9 67 -18.8 -1.8
15:15 1022 30.18 851 25.13 -13.9 6.9 66 -19.1 -2.4
15:20 1022 30.18 851 25.13 -14 6.7 67 -19 -2.1
15:25 1022 30.18 851 25.13 -14.2 6.4 67 -19 -2.2
15:30 1022 30.18 851 25.13 -14.3 6.4 69 -18.8 -1.9
15:35 1022 30.18 851 25.13 -13.9 7.1 68 -18.5 -1.3
15:40 1022 30.18 851 25.13 -13.5 7.8 68 -18.2 -0.7
15:45 1022 30.18 851 25.13 -13.6 7.5 67 -18.5 -1.3
15:50 1022 30.18 851 25.13 -14 6.8 68 -18.7 -1.7
15:55 1022 30.18 851 25.13 -14.1 6.5 68 -18.8 -1.8
16:00 1022 30.18 851 25.13 -14.4 6.2 69 -18.8 -1.9
16:05 1022 30.18 851 25.13 -14.6 5.8 73 -18.4 -1.1
16:10 1022 30.18 851 25.13 -14.4 6 74 -18.1 -0.6
16:15 1022 30.18 851 25.13 -14.3 6.3 70 -18.6 -1.4
16:20 1022 30.18 851 25.13 -14.4 6 72 -18.4 -1.2
16:25 1022 30.18 851 25.13 -14.3 6.3 69 -18.8 -1.8
16:30 1022 30.18 851 25.13 -14.5 5.9 71 -18.6 -1.5
16:35 1022 30.18 851 25.13 -14.5 5.8 72 -18.6 -1.5
16:40 1022 30.18 851 25.13 -14.5 5.9 72 -18.5 -1.4
16:45 1022 30.18 851 25.13 -14.6 5.7 73 -18.4 -1
16:50 1022 30.18 851 25.13 -14.6 5.7 75 -18.1 -0.6
16:55 1022 30.18 851 25.13 -14.6 5.7 78 -17.7 0.2
17:00 1022 30.18 851 25.13 -14.4 6 76 -17.7 0.1
17:05 1022 30.18 851 25.13 -14.5 6 79 -17.4 0.7
17:10 1022 30.18 851 25.13 -14.4 6 78 -17.4 0.6
17:15 1022 30.18 851 25.13 -14.5 5.9 80 -17.3 0.9
17:20 1022 30.18 851 25.13 -14.5 5.9 79 -17.3 0.8
17:25 1022 30.18 851 25.13 -14.5 5.8 81 -17.1 1.2
17:30 1022 30.18 851 25.13 -14.5 5.9 81 -17.1 1.2
17:35 1022 30.18 851 25.13 -14.5 6 81 -17 1.4
17:40 1022 30.18 851 25.13 -14.5 5.9 84 -16.7 1.9
17:45 1022 30.18 851 25.13 -14.4 6.1 84 -16.6 2.2
17:50 1022 30.18 851 25.13 -14.3 6.3 85 -16.3 2.7
17:55 1022 30.18 851 25.13 -14.1 6.5 84 -16.3 2.7
18:00 1022 30.18 852 25.16 -14.2 6.4 86 -16.1 3.1
18:05 1022 30.18 852 25.16 -14.1 6.6 85 -16 3.1
18:10 1022 30.18 852 25.16 -14.2 6.5 87 -15.9 3.4
18:15 1022 30.18 852 25.16 -14.1 6.7 86 -16 3.2
18:20 1022 30.18 852 25.16 -14.1 6.6 87 -15.8 3.5
18:25 1022 30.18 852 25.16 -13.9 7.1 87 -15.6 3.8
18:30 1023 30.21 852 25.16 -13.7 7.4 85 -15.7 3.8
18:35 1023 30.21 852 25.16 -13.7 7.4 85 -15.7 3.8
18:40 1023 30.21 852 25.16 -13.7 7.4 85 -15.7 3.7
18:45 1023 30.21 852 25.16 -13.7 7.3 85 -15.7 3.7
18:50 1023 30.21 852 25.16 -13.8 7.2 85 -15.8 3.6
18:55 1023 30.21 852 25.16 -13.9 7 85 -15.9 3.5
19:00 1023 30.21 852 25.16 -14 6.8 86 -15.9 3.4
19:05 1023 30.21 852 25.16 -14 6.9 86 -15.9 3.5
19:10 1023 30.21 852 25.16 -13.9 7 85 -15.9 3.4
19:15 1023 30.21 852 25.16 -13.9 6.9 85 -15.9 3.4
19:20 1023 30.21 852 25.16 -14 6.9 86 -15.8 3.5
19:25 1023 30.21 852 25.16 -14.1 6.7 86 -15.9 3.3
19:30 1023 30.21 852 25.16 -14.2 6.5 87 -15.8 3.5
19:35 1023 30.21 852 25.16 -14.2 6.4 86 -16 3.2
19:40 1023 30.21 852 25.16 -14.3 6.2 88 -15.9 3.3
19:45 1023 30.21 852 25.16 -14.3 6.2 88 -15.9 3.3
19:50 1023 30.21 852 25.16 -14.2 6.4 88 -15.8 3.6
19:55 1023 30.21 852 25.16 -14.1 6.7 87 -15.7 3.7
20:00 1023 30.21 852 25.16 -14 6.7 87 -15.7 3.7
20:05 1023 30.21 852 25.16 -14.1 6.6 87 -15.8 3.5
20:10 1023 30.21 852 25.16 -14.2 6.5 88 -15.7 3.7
20:15 1023 30.21 852 25.16 -14 6.8 89 -15.5 4.1
20:20 1023 30.21 852 25.16 -13.8 7.3 87 -15.5 4.2
20:25 1023 30.21 853 25.19 -13.6 7.5 88 -15.2 4.6
20:30 1023 30.21 853 25.19 -13.4 7.9 87 -15 4.9
20:35 1024 30.24 853 25.19 -13.3 8 88 -15 5
20:40 1024 30.24 853 25.19 -13.4 7.9 86 -15.2 4.6
20:45 1023 30.21 853 25.19 -13.6 7.5 87 -15.3 4.4
20:50 1023 30.21 853 25.19 -13.7 7.4 86 -15.5 4.1
20:55 1023 30.21 853 25.19 -13.8 7.1 87 -15.5 4.1
21:00 1023 30.21 853 25.19 -13.8 7.2 88 -15.4 4.4
21:05 1023 30.21 852 25.16 -13.7 7.4 88 -15.3 4.4
21:10 1023 30.21 852 25.16 -13.6 7.5 87 -15.3 4.5
21:15 1023 30.21 852 25.16 -13.5 7.8 87 -15.2 4.7
21:20 1023 30.21 852 25.16 -13.5 7.6 88 -15.2 4.7
21:25 1023 30.21 852 25.16 -13.6 7.6 88 -15.2 4.7
21:30 1023 30.21 852 25.16 -13.6 7.5 87 -15.3 4.4
21:35 1023 30.21 852 25.16 -13.7 7.3 88 -15.3 4.4
21:40 1023 30.21 852 25.16 -13.9 7 88 -15.5 4.2
21:45 1023 30.21 852 25.16 -14 6.9 88 -15.5 4.1
21:50 1023 30.21 852 25.16 -14 6.9 88 -15.5 4.1
21:55 1023 30.21 852 25.16 -13.9 6.9 89 -15.4 4.2
22:00 1023 30.21 852 25.16 -13.7 7.4 88 -15.3 4.5
22:05 1023 30.21 852 25.16 -13.6 7.5 88 -15.2 4.6
22:10 1023 30.21 852 25.16 -13.7 7.4 88 -15.2 4.7
22:15 1023 30.21 852 25.16 -13.6 7.6 88 -15.1 4.8
22:20 1023 30.21 852 25.16 -13.5 7.8 88 -15.1 4.9
22:25 1023 30.21 852 25.16 -13.5 7.7 88 -15.1 4.9
22:30 1023 30.21 852 25.16 -13.6 7.5 88 -15.2 4.7
22:35 1023 30.21 852 25.16 -13.6 7.4 88 -15.2 4.6
22:40 1023 30.21 852 25.16 -13.7 7.3 88 -15.3 4.4
22:45 1023 30.21 852 25.16 -13.7 7.3 88 -15.3 4.5
22:50 1023 30.21 852 25.16 -13.7 7.4 88 -15.2 4.6
22:55 1023 30.21 852 25.16 -13.6 7.6 88 -15.2 4.7
23:00 1022 30.18 852 25.16 -13.4 7.8 88 -15 4.9
23:05 1022 30.18 852 25.16 -13.3 8.1 87 -15 5.1
23:10 1022 30.18 852 25.16 -13.1 8.4 87 -14.8 5.4
23:15 1022 30.18 852 25.16 -12.9 8.9 86 -14.8 5.4
23:20 1022 30.18 852 25.16 -12.9 8.8 85 -14.8 5.3
23:25 1022 30.18 852 25.16 -13 8.6 86 -14.8 5.3
23:30 1022 30.18 852 25.16 -13 8.7 86 -14.8 5.4
23:35 1022 30.18 851 25.13 -12.9 8.9 86 -14.7 5.6
23:40 1022 30.18 851 25.13 -12.8 9 86 -14.6 5.7
23:45 1022 30.18 851 25.13 -12.7 9.1 87 -14.5 5.9
23:50 1022 30.18 851 25.13 -12.6 9.4 87 -14.4 6.1
23:55 1022 30.18 851 25.13 -12.5 9.5 86 -14.4 6.2
24:00 1022 30.18 851 25.13 -12.5 9.5 86 -14.4 6.1